createdAt,value
2022-09-07T00:00:20.332Z,8.40
2022-09-07T00:03:24.544Z,8.00
2022-09-07T00:06:29.335Z,8.60
2022-09-07T00:09:34.452Z,7.77
2022-09-07T00:12:38.078Z,8.47
2022-09-07T00:15:42.044Z,8.13
2022-09-07T00:18:46.733Z,7.90
2022-09-07T00:21:50.512Z,8.50
2022-09-07T00:24:55.564Z,7.47
2022-09-07T00:27:59.231Z,7.73
2022-09-07T00:31:03.354Z,7.83
2022-09-07T00:34:07.351Z,8.07
2022-09-07T00:37:11.216Z,7.50
2022-09-07T00:40:16.262Z,7.97
2022-09-07T00:43:33.209Z,7.50
2022-09-07T00:46:37.056Z,7.33
2022-09-07T00:49:43.393Z,7.83
2022-09-07T00:52:52.364Z,7.30
2022-09-07T00:56:01.002Z,7.27
2022-09-07T00:59:05.390Z,7.50
2022-09-07T01:02:10.025Z,6.93
2022-09-07T01:05:24.703Z,7.63
2022-09-07T01:08:29.807Z,8.13
2022-09-07T01:11:36.251Z,7.57
2022-09-07T01:14:47.391Z,7.50
2022-09-07T01:18:05.213Z,6.90
2022-09-07T01:21:26.563Z,7.50
2022-09-07T01:25:05.292Z,7.77
2022-09-07T01:28:21.775Z,7.93
2022-09-07T01:31:42.980Z,7.97
2022-09-07T01:34:54.985Z,7.97
2022-09-07T01:38:10.889Z,7.17
2022-09-07T01:41:24.824Z,7.00
2022-09-07T01:44:39.017Z,6.93
2022-09-07T01:47:47.354Z,7.23
2022-09-07T01:50:57.821Z,7.57
2022-09-07T01:54:12.413Z,7.83
2022-09-07T01:57:24.991Z,7.50
2022-09-07T02:00:32.426Z,8.40
2022-09-07T02:03:43.547Z,7.87
2022-09-07T02:06:53.048Z,7.87
2022-09-07T02:10:02.799Z,8.03
2022-09-07T02:13:14.265Z,7.70
2022-09-07T02:16:25.785Z,8.17
2022-09-07T02:19:37.724Z,7.97
2022-09-07T02:22:46.773Z,7.40
2022-09-07T02:25:56.187Z,7.57
2022-09-07T02:29:00.210Z,7.73
2022-09-07T02:32:06.499Z,7.83
2022-09-07T02:35:10.924Z,7.63
2022-09-07T02:38:15.105Z,8.43
2022-09-07T02:41:34.230Z,8.20
2022-09-07T02:44:41.913Z,8.33
2022-09-07T02:48:10.683Z,8.60
2022-09-07T02:51:25.695Z,8.50
2022-09-07T02:54:51.028Z,7.67
2022-09-07T02:58:15.017Z,8.13
2022-09-07T03:01:37.404Z,8.80
2022-09-07T03:04:52.309Z,8.73
2022-09-07T03:08:02.369Z,8.57
2022-09-07T03:11:07.808Z,9.40
2022-09-07T03:14:19.161Z,8.07
2022-09-07T03:17:22.903Z,8.33
2022-09-07T03:20:27.931Z,8.57
2022-09-07T03:23:31.581Z,8.30
2022-09-07T03:26:36.967Z,9.77
2022-09-07T03:29:42.100Z,8.90
2022-09-07T03:32:46.009Z,9.07
2022-09-07T03:36:02.459Z,9.43
2022-09-07T03:39:07.623Z,9.57
2022-09-07T03:42:11.330Z,9.63
2022-09-07T03:45:15.186Z,10.33
2022-09-07T03:48:19.070Z,11.30
2022-09-07T03:51:24.186Z,10.20
2022-09-07T03:54:28.104Z,10.47
2022-09-07T03:57:32.059Z,11.30
2022-09-07T04:00:36.213Z,10.90
2022-09-07T04:03:41.068Z,11.33
2022-09-07T04:06:46.151Z,12.60
2022-09-07T04:09:52.341Z,12.17
2022-09-07T04:12:56.355Z,12.80
2022-09-07T04:16:00.329Z,11.80
2022-09-07T04:19:05.135Z,12.20
2022-09-07T04:22:10.225Z,10.87
2022-09-07T04:25:14.059Z,11.90
2022-09-07T04:28:17.890Z,11.23
2022-09-07T04:31:22.965Z,12.57
2022-09-07T04:34:26.767Z,15.20
2022-09-07T04:37:31.909Z,13.77
2022-09-07T04:40:36.160Z,12.47
2022-09-07T04:43:43.357Z,11.80
2022-09-07T04:46:47.214Z,12.00
2022-09-07T04:49:52.348Z,12.40
2022-09-07T04:52:57.586Z,12.63
2022-09-07T04:56:01.684Z,12.03
2022-09-07T04:59:05.926Z,11.87
2022-09-07T05:02:09.885Z,11.80
2022-09-07T05:05:13.651Z,12.17
2022-09-07T05:08:22.923Z,11.97
2022-09-07T05:11:29.723Z,12.23
2022-09-07T05:14:33.716Z,11.70
2022-09-07T05:17:37.371Z,12.30
2022-09-07T05:20:41.820Z,11.30
2022-09-07T05:23:50.655Z,12.93
2022-09-07T05:26:54.920Z,13.57
2022-09-07T05:33:09.143Z,12.90
2022-09-07T05:36:12.924Z,13.10
2022-09-07T05:39:18.661Z,14.67
2022-09-07T05:42:22.771Z,13.40
2022-09-07T05:45:26.732Z,15.93
2022-09-07T05:48:30.805Z,16.33
2022-09-07T05:51:34.918Z,19.23
2022-09-07T05:54:40.251Z,22.13
2022-09-07T05:57:43.951Z,19.10
2022-09-07T06:00:47.820Z,18.43
2022-09-07T06:03:51.723Z,19.10
2022-09-07T06:13:44.855Z,19.77
2022-09-07T06:16:48.616Z,19.83
2022-09-07T06:19:52.379Z,19.90
2022-09-07T06:22:56.117Z,19.70
2022-09-07T06:26:02.146Z,21.40
2022-09-07T06:29:06.015Z,21.20
2022-09-07T06:35:33.315Z,21.53
2022-09-07T06:38:39.467Z,22.83
2022-09-07T06:41:59.816Z,22.80
2022-09-07T06:45:03.599Z,22.93
2022-09-07T06:48:07.329Z,21.60
2022-09-07T06:51:15.718Z,24.67
2022-09-07T06:57:44.551Z,22.63
2022-09-07T07:00:48.491Z,23.50
2022-09-07T07:03:53.639Z,23.97
2022-09-07T07:06:57.372Z,22.77
2022-09-07T07:10:01.044Z,24.37
2022-09-07T07:13:06.133Z,24.73
2022-09-07T07:16:11.716Z,24.93
2022-09-07T07:19:15.803Z,25.60
2022-09-07T07:22:45.023Z,26.27
2022-09-07T07:25:43.189Z,26.07
2022-09-07T07:29:06.076Z,25.53
2022-09-07T07:32:09.858Z,27.23
2022-09-07T07:35:15.102Z,26.77
2022-09-07T07:42:00.316Z,28.30
2022-09-07T07:48:35.970Z,24.30
2022-09-07T07:55:42.981Z,23.40
2022-09-07T07:58:28.265Z,22.33
2022-09-07T08:01:33.395Z,22.47
2022-09-07T08:04:37.620Z,22.37
2022-09-07T08:07:41.280Z,21.47
2022-09-07T08:10:46.141Z,20.43
2022-09-07T08:13:52.172Z,19.90
2022-09-07T08:16:57.232Z,19.27
2022-09-07T08:20:00.767Z,20.57
2022-09-07T08:23:04.499Z,20.83
2022-09-07T08:26:09.557Z,23.70
2022-09-07T08:29:13.426Z,21.87
2022-09-07T08:32:18.397Z,20.33
2022-09-07T08:35:22.087Z,22.13
2022-09-07T08:38:26.308Z,19.37
2022-09-07T08:42:03.143Z,19.97
2022-09-07T08:45:12.983Z,16.57
2022-09-07T08:48:24.914Z,16.53
2022-09-07T08:51:38.365Z,16.17
2022-09-07T08:54:50.976Z,14.80
2022-09-07T08:58:05.134Z,15.03
2022-09-07T09:08:33.571Z,15.53
2022-09-07T09:11:53.901Z,15.60
2022-09-07T09:15:17.632Z,13.37
2022-09-07T09:18:37.674Z,13.67
2022-09-07T09:21:44.673Z,14.37
2022-09-07T09:24:54.062Z,13.70
2022-09-07T09:27:57.741Z,12.80
2022-09-07T09:31:01.442Z,12.43
2022-09-07T09:34:17.702Z,12.43
2022-09-07T09:37:36.777Z,12.33
2022-09-07T09:40:40.704Z,13.67
2022-09-07T09:43:47.952Z,13.47
2022-09-07T09:53:59.234Z,12.63
2022-09-07T09:57:03.606Z,13.50
2022-09-07T10:00:23.635Z,14.03
2022-09-07T10:07:07.891Z,14.93
2022-09-07T10:10:17.867Z,14.13
2022-09-07T10:13:25.253Z,12.87
2022-09-07T10:16:42.261Z,15.17
2022-09-07T10:19:46.053Z,14.00
2022-09-07T10:23:00.758Z,16.00
2022-09-07T10:26:27.163Z,16.30
2022-09-07T10:29:36.031Z,17.07
2022-09-07T10:33:02.287Z,15.97
2022-09-07T10:36:16.438Z,16.30
2022-09-07T10:39:26.704Z,16.93
2022-09-07T10:42:36.611Z,16.57
2022-09-07T10:53:42.071Z,14.30
2022-09-07T10:57:04.249Z,16.10
2022-09-07T11:00:16.447Z,13.73
2022-09-07T11:04:04.232Z,12.67
2022-09-07T11:07:32.035Z,15.63
2022-09-07T11:10:47.589Z,9.43
2022-09-07T11:14:12.443Z,8.23
2022-09-07T11:17:24.501Z,7.53
2022-09-07T11:20:35.564Z,6.73
2022-09-07T11:23:46.110Z,6.93
2022-09-07T11:26:57.557Z,7.30
2022-09-07T11:30:07.084Z,6.20
2022-09-07T11:33:20.592Z,7.13
2022-09-07T11:36:27.974Z,7.20
2022-09-07T11:39:37.415Z,7.00
2022-09-07T11:42:51.192Z,6.97
2022-09-07T11:46:02.640Z,7.30
2022-09-07T11:49:18.988Z,5.17
2022-09-07T11:52:35.331Z,5.10
2022-09-07T11:55:45.328Z,5.50
2022-09-07T11:59:19.348Z,5.00
2022-09-07T12:03:38.192Z,4.90
2022-09-07T12:07:18.446Z,4.70
2022-09-07T12:10:56.088Z,4.30
2022-09-07T12:14:18.944Z,4.33
2022-09-07T12:17:45.712Z,4.77
2022-09-07T12:20:50.496Z,4.43
2022-09-07T12:23:55.542Z,4.80
2022-09-07T12:27:01.836Z,4.57
2022-09-07T12:30:57.911Z,4.60
2022-09-07T12:34:58.996Z,3.23
2022-09-07T12:38:06.059Z,3.13
2022-09-07T12:41:26.598Z,2.73
2022-09-07T12:44:30.188Z,2.67
2022-09-07T12:47:33.891Z,2.67
2022-09-07T12:50:58.931Z,2.93
2022-09-07T12:54:13.760Z,3.27
2022-09-07T12:57:34.456Z,2.50
2022-09-07T13:01:01.007Z,2.27
2022-09-07T13:04:48.637Z,2.33
2022-09-07T13:08:43.981Z,2.20
2022-09-07T13:11:48.478Z,2.70
2022-09-07T13:14:57.218Z,3.07
2022-09-07T13:18:01.301Z,3.13
2022-09-07T13:21:38.645Z,3.10
2022-09-07T13:24:56.806Z,2.80
2022-09-07T13:28:04.495Z,2.97
2022-09-07T13:31:45.184Z,3.20
2022-09-07T13:35:06.762Z,3.00
2022-09-07T13:38:16.705Z,2.70
2022-09-07T13:41:36.226Z,2.87
2022-09-07T13:44:41.696Z,2.60
2022-09-07T13:48:01.678Z,2.50
2022-09-07T13:51:14.309Z,2.73
2022-09-07T13:54:30.166Z,2.20
2022-09-07T13:57:49.487Z,2.00
2022-09-07T14:00:55.837Z,2.30
2022-09-07T14:04:07.636Z,2.47
2022-09-07T14:07:17.095Z,2.67
2022-09-07T14:10:23.268Z,2.67
2022-09-07T14:13:26.849Z,2.70
2022-09-07T14:16:30.629Z,2.50
2022-09-07T14:19:40.847Z,2.90
2022-09-07T14:22:49.414Z,3.10
2022-09-07T14:26:17.166Z,3.20
2022-09-07T14:29:27.007Z,3.00
2022-09-07T14:32:32.167Z,3.40
2022-09-07T14:35:42.407Z,3.57
2022-09-07T14:42:15.216Z,3.10
2022-09-07T14:45:37.522Z,3.53
2022-09-07T14:48:43.125Z,3.77
2022-09-07T14:51:49.275Z,3.53
2022-09-07T14:54:54.138Z,3.87
2022-09-07T14:58:24.054Z,3.77
2022-09-07T15:01:44.126Z,3.03
2022-09-07T15:04:49.039Z,2.70
2022-09-07T15:07:57.866Z,3.20
2022-09-07T15:14:28.106Z,3.77
2022-09-07T15:17:49.283Z,4.37
2022-09-07T15:20:53.158Z,4.93
2022-09-07T15:24:00.792Z,4.60
2022-09-07T15:27:20.823Z,4.70
2022-09-07T15:30:25.293Z,4.77
2022-09-07T15:33:31.454Z,4.70
2022-09-07T15:36:35.102Z,4.90
2022-09-07T15:39:40.480Z,5.37
2022-09-07T15:42:59.963Z,5.50
2022-09-07T15:46:04.376Z,5.87
2022-09-07T15:49:08.222Z,5.50
2022-09-07T15:52:11.766Z,5.67
2022-09-07T15:55:17.394Z,5.17
2022-09-07T15:58:21.686Z,5.60
2022-09-07T16:04:49.701Z,5.00
2022-09-07T16:11:23.990Z,5.70
2022-09-07T16:14:27.887Z,5.60
2022-09-07T16:17:36.698Z,6.00
2022-09-07T16:20:42.183Z,5.50
2022-09-07T16:23:48.975Z,6.17
2022-09-07T16:26:53.910Z,6.03
2022-09-07T16:29:57.566Z,5.77
2022-09-07T16:33:01.288Z,6.47
2022-09-07T16:36:09.211Z,5.80
2022-09-07T16:39:12.862Z,6.67
2022-09-07T16:42:17.802Z,6.07
2022-09-07T16:49:04.097Z,8.20
2022-09-07T16:52:10.810Z,8.40
2022-09-07T16:55:14.779Z,8.07
2022-09-07T16:58:35.715Z,8.03
2022-09-07T17:01:40.061Z,8.53
2022-09-07T17:04:43.656Z,8.90
2022-09-07T17:07:47.714Z,8.77
2022-09-07T17:10:51.243Z,8.90
2022-09-07T17:13:59.070Z,8.07
2022-09-07T17:17:02.723Z,7.80
2022-09-07T17:20:07.963Z,7.77
2022-09-07T17:23:11.599Z,7.57
2022-09-07T17:26:17.072Z,8.37
2022-09-07T17:29:22.306Z,8.80
2022-09-07T17:32:28.627Z,7.03
2022-09-07T17:35:37.411Z,8.93
2022-09-07T17:42:05.587Z,7.87
2022-09-07T17:45:11.647Z,7.40
2022-09-07T17:48:15.402Z,9.10
2022-09-07T17:51:20.135Z,9.00
2022-09-07T17:54:24.902Z,9.73
2022-09-07T17:57:30.884Z,9.00
2022-09-07T18:00:36.007Z,8.60
2022-09-07T18:03:40.235Z,8.60
2022-09-07T18:06:44.214Z,9.63
2022-09-07T18:09:47.777Z,8.53
2022-09-07T18:12:51.419Z,8.50
2022-09-07T18:15:56.625Z,8.40
2022-09-07T18:19:03.613Z,9.77
2022-09-07T18:22:08.744Z,8.67
2022-09-07T18:25:12.795Z,8.67
2022-09-07T18:31:41.365Z,9.13
2022-09-07T18:34:50.239Z,9.20
2022-09-07T18:37:55.318Z,10.10
2022-09-07T18:41:04.594Z,10.13
2022-09-07T18:45:27.274Z,10.67
2022-09-07T18:47:33.483Z,10.87
2022-09-07T18:50:37.407Z,10.10
2022-09-07T18:53:41.460Z,10.17
2022-09-07T18:56:45.085Z,10.83
2022-09-07T18:59:48.811Z,10.53
2022-09-07T19:02:53.846Z,11.70
2022-09-07T19:06:03.728Z,11.60
2022-09-07T19:09:07.358Z,12.47
2022-09-07T19:12:10.986Z,12.33
2022-09-07T19:15:32.302Z,12.37
2022-09-07T19:18:41.474Z,11.30
2022-09-07T19:21:45.091Z,13.13
2022-09-07T19:24:49.509Z,12.87
2022-09-07T19:27:53.173Z,13.43
2022-09-07T19:31:02.733Z,13.40
2022-09-07T19:34:07.850Z,13.27
2022-09-07T19:37:14.604Z,13.27
2022-09-07T19:40:19.409Z,12.57
2022-09-07T19:43:23.169Z,13.23
2022-09-07T19:46:27.615Z,13.90
2022-09-07T19:49:32.739Z,14.30
2022-09-07T19:52:36.882Z,13.93
2022-09-07T19:55:40.861Z,14.33
2022-09-07T19:58:46.376Z,14.73
2022-09-07T20:01:50.917Z,15.57
2022-09-07T20:04:55.963Z,15.00
2022-09-07T20:07:59.667Z,15.77
2022-09-07T20:11:03.976Z,14.50
2022-09-07T20:14:07.758Z,16.07
2022-09-07T20:17:11.520Z,15.87
2022-09-07T20:20:16.717Z,14.77
2022-09-07T20:23:20.732Z,14.90
2022-09-07T20:26:24.985Z,13.97
2022-09-07T20:29:29.574Z,14.83
2022-09-07T20:32:33.251Z,14.27
2022-09-07T20:35:38.163Z,15.80
2022-09-07T20:38:44.127Z,18.03
2022-09-07T20:41:48.176Z,17.30
2022-09-07T20:44:51.919Z,17.43
2022-09-07T20:47:55.527Z,18.80
2022-09-07T20:51:03.978Z,18.13
2022-09-07T20:54:08.215Z,19.37
2022-09-07T20:57:11.976Z,18.60
2022-09-07T21:00:15.933Z,17.13
2022-09-07T21:03:20.289Z,16.13
2022-09-07T21:06:27.405Z,17.17
2022-09-07T21:09:30.985Z,17.13
2022-09-07T21:12:34.676Z,19.10
2022-09-07T21:15:39.469Z,20.07
2022-09-07T21:18:44.407Z,22.67
2022-09-07T21:21:49.389Z,21.03
2022-09-07T21:24:54.164Z,21.43
2022-09-07T21:27:57.831Z,21.17
2022-09-07T21:31:04.699Z,22.10
2022-09-07T21:34:08.344Z,23.93
2022-09-07T21:37:13.327Z,23.23
2022-09-07T21:40:17.380Z,24.10
2022-09-07T21:43:21.048Z,25.60
2022-09-07T21:46:25.073Z,26.67
2022-09-07T21:49:28.746Z,26.43
2022-09-07T21:52:33.754Z,26.00
2022-09-07T21:55:37.664Z,25.27
2022-09-07T21:58:41.584Z,26.37
2022-09-07T22:01:45.244Z,24.63
2022-09-07T22:04:48.892Z,24.80
2022-09-07T22:07:53.967Z,26.60
2022-09-07T22:11:06.324Z,27.53
2022-09-07T22:14:13.395Z,27.50
2022-09-07T22:17:17.111Z,27.00
2022-09-07T22:20:20.998Z,26.53
2022-09-07T22:23:26.043Z,26.60
2022-09-07T22:26:32.371Z,26.23
2022-09-07T22:29:35.927Z,26.33
2022-09-07T22:32:39.512Z,26.03
2022-09-07T22:35:43.290Z,26.40
2022-09-07T22:38:51.406Z,25.47
2022-09-07T22:41:54.952Z,26.13
2022-09-07T22:44:58.829Z,25.97
2022-09-07T22:48:02.522Z,26.60
2022-09-07T22:51:07.264Z,24.20
2022-09-07T22:54:12.586Z,24.93
2022-09-07T22:57:16.203Z,24.47
2022-09-07T23:00:19.907Z,23.93
2022-09-07T23:03:23.544Z,24.00
2022-09-07T23:06:30.769Z,24.20
2022-09-07T23:09:35.763Z,24.60
2022-09-07T23:12:40.484Z,23.70
2022-09-07T23:15:44.400Z,21.53
2022-09-07T23:18:48.325Z,23.03
2022-09-07T23:21:51.939Z,22.60
2022-09-07T23:24:56.882Z,24.47
2022-09-07T23:28:00.546Z,22.83
2022-09-07T23:31:04.224Z,22.87
2022-09-07T23:34:08.574Z,23.37
2022-09-07T23:37:12.101Z,22.53
2022-09-07T23:40:17.317Z,22.67
2022-09-07T23:43:20.902Z,22.23
2022-09-07T23:46:25.333Z,23.63
2022-09-07T23:49:29.209Z,22.70
2022-09-07T23:52:33.759Z,23.37
2022-09-07T23:55:39.673Z,23.03
2022-09-07T23:58:43.399Z,23.37
